Time,TemperatureF,DewpointF,PressureIn,WindDirection,WindDirectionDegrees,WindSpeedMPH,WindSpeedGustMPH,Humidity,HourlyPrecipIn,Conditions,Clouds,dailyrainin,SolarRadiationWatts/m^2,SoftwareType,DateUTC
2013-02-13 00:00:00,42.0,31.5,30.28,North,0,10.0,0.0,66,0.00,,,0.35,1,WeatherHawk,2013-02-13 06:00:00,
2013-02-13 00:05:00,41.9,31.4,30.28,NE,36,9.0,0.0,66,0.00,,,0.00,0,WeatherHawk,2013-02-13 06:05:00,
2013-02-13 00:10:00,41.8,31.6,30.29,NW,305,11.0,0.0,67,0.00,,,0.00,1,WeatherHawk,2013-02-13 06:10:00,
2013-02-13 00:15:00,41.6,30.7,30.29,NNW,348,8.0,-999.0,65,0.00,,,0.00,1,WeatherHawk,2013-02-13 06:15:00,
2013-02-13 00:20:00,41.2,30.0,30.29,NW,310,14.0,0.0,64,0.00,,,0.00,0,WeatherHawk,2013-02-13 06:20:00,
2013-02-13 00:25:00,40.9,30.1,30.30,NNE,31,13.0,0.0,65,0.00,,,0.00,1,WeatherHawk,2013-02-13 06:25:00,
2013-02-13 00:30:00,40.8,30.4,30.30,West,259,9.0,0.0,66,0.00,,,0.00,2,WeatherHawk,2013-02-13 06:30:00,
2013-02-13 00:35:00,40.8,30.4,30.30,North,2,11.0,-999.0,66,0.00,,,0.00,0,WeatherHawk,2013-02-13 06:35:00,
2013-02-13 00:40:00,40.8,30.7,30.30,West,276,7.0,0.0,67,0.00,,,0.00,0,WeatherHawk,2013-02-13 06:40:00,
2013-02-13 00:45:00,40.8,29.9,30.30,West,281,8.0,0.0,65,0.00,,,0.00,0,WeatherHawk,2013-02-13 06:45:00,
2013-02-13 00:50:00,40.8,30.3,30.32,NW,304,11.0,0.0,66,0.00,,,0.00,0,WeatherHawk,2013-02-13 06:50:00,
2013-02-13 00:55:00,40.8,30.0,30.30,North,4,11.0,-999.0,65,0.00,,,0.00,1,WeatherHawk,2013-02-13 06:55:00,
2013-02-13 01:00:00,40.8,30.3,30.31,SW,232,11.0,0.0,66,0.00,,,0.00,0,WeatherHawk,2013-02-13 07:00:00,
2013-02-13 01:05:00,40.8,30.7,30.31,NNW,347,8.0,-999.0,67,0.00,,,0.00,0,WeatherHawk,2013-02-13 07:05:00,
2013-02-13 01:10:00,40.8,30.4,30.31,WNW,284,12.0,0.0,66,0.00,,,0.00,1,WeatherHawk,2013-02-13 07:10:00,
2013-02-13 01:15:00,40.9,30.8,30.31,WNW,286,11.0,0.0,67,0.00,,,0.00,0,WeatherHawk,2013-02-13 07:15:00,
2013-02-13 01:19:00,40.8,30.3,30.30,NE,39,10.0,0.0,66,0.00,,,0.00,1,WeatherHawk,2013-02-13 07:19:00,
2013-02-13 01:25:00,40.8,30.4,30.31,NW,311,16.0,0.0,66,0.00,,,0.00,1,WeatherHawk,2013-02-13 07:25:00,
2013-02-13 01:30:00,40.9,30.8,30.31,NNW,345,7.0,-999.0,67,0.00,,,0.00,0,WeatherHawk,2013-02-13 07:30:00,
2013-02-13 01:35:00,40.9,30.5,30.31,WNW,293,10.0,0.0,66,0.00,,,0.00,0,WeatherHawk,2013-02-13 07:35:00,
2013-02-13 01:40:00,40.9,30.4,30.31,NW,320,13.0,-999.0,66,0.00,,,0.00,0,WeatherHawk,2013-02-13 07:40:00,
2013-02-13 01:45:00,40.8,30.3,30.32,NNE,21,6.0,0.0,66,0.00,,,0.00,2,WeatherHawk,2013-02-13 07:45:00,
2013-02-13 01:50:00,40.8,29.2,30.30,North,2,14.0,0.0,63,0.00,,,0.00,0,WeatherHawk,2013-02-13 07:50:00,
2013-02-13 01:55:00,40.8,29.6,30.32,WNW,290,7.0,0.0,64,0.00,,,0.00,1,WeatherHawk,2013-02-13 07:55:00,
2013-02-13 02:00:00,40.8,30.0,30.32,SSW,202,5.0,0.0,65,0.00,,,0.00,1,WeatherHawk,2013-02-13 08:00:00,
2013-02-13 02:05:00,40.8,29.6,30.32,NW,305,7.0,0.0,64,0.00,,,0.00,0,WeatherHawk,2013-02-13 08:05:00,
2013-02-13 02:10:00,40.9,30.4,30.31,NE,44,9.0,-999.0,66,0.00,,,0.00,0,WeatherHawk,2013-02-13 08:10:00,
2013-02-13 02:14:00,40.8,29.6,30.32,SSW,206,6.0,0.0,64,0.00,,,0.00,1,WeatherHawk,2013-02-13 08:14:00,
2013-02-13 02:20:00,40.9,30.5,30.32,North,7,8.0,0.0,66,0.00,,,0.00,0,WeatherHawk,2013-02-13 08:20:00,
2013-02-13 02:24:00,40.8,30.7,30.32,ENE,68,3.0,0.0,67,0.00,,,0.00,1,WeatherHawk,2013-02-13 08:24:00,
2013-02-13 02:30:00,40.8,30.4,30.32,South,176,6.0,-999.0,66,0.00,,,0.00,0,WeatherHawk,2013-02-13 08:30:00,
2013-02-13 02:35:00,40.9,29.3,30.32,NW,311,14.0,0.0,63,0.00,,,0.00,0,WeatherHawk,2013-02-13 08:35:00,
2013-02-13 02:40:00,40.9,28.9,30.32,NNW,330,13.0,0.0,62,0.00,,,0.00,0,WeatherHawk,2013-02-13 08:40:00,
2013-02-13 02:45:00,40.9,29.3,30.32,NNW,330,11.0,0.0,63,0.00,,,0.00,1,WeatherHawk,2013-02-13 08:45:00,
2013-02-13 02:50:00,40.8,28.8,30.32,North,350,10.0,0.0,62,0.00,,,0.00,0,WeatherHawk,2013-02-13 08:50:00,
2013-02-13 02:55:00,40.7,29.1,30.33,NNW,329,11.0,0.0,63,0.00,,,0.00,1,WeatherHawk,2013-02-13 08:55:00,
2013-02-13 03:00:00,40.5,28.5,30.31,NNE,16,11.0,0.0,62,0.00,,,0.00,0,WeatherHawk,2013-02-13 09:00:00,
2013-02-13 03:05:00,40.5,28.9,30.33,NW,311,10.0,0.0,63,0.00,,,0.00,0,WeatherHawk,2013-02-13 09:05:00,
2013-02-13 03:10:00,40.3,28.7,30.32,WNW,286,5.0,0.0,63,0.00,,,0.00,1,WeatherHawk,2013-02-13 09:10:00,
2013-02-13 03:15:00,40.3,29.1,30.32,NW,326,9.0,0.0,64,0.00,,,0.00,0,WeatherHawk,2013-02-13 09:15:00,
2013-02-13 03:20:00,40.4,29.6,30.33,NW,316,8.0,0.0,65,0.00,,,0.00,0,WeatherHawk,2013-02-13 09:20:00,
2013-02-13 03:26:00,40.2,29.0,30.33,WNW,295,13.0,0.0,64,0.00,,,0.00,0,WeatherHawk,2013-02-13 09:26:00,
2013-02-13 03:32:00,40.1,28.9,30.32,ENE,70,9.0,0.0,64,0.00,,,0.00,0,WeatherHawk,2013-02-13 09:32:00,
2013-02-13 03:37:00,39.8,28.3,30.33,West,277,12.0,0.0,63,0.00,,,0.00,1,WeatherHawk,2013-02-13 09:37:00,
2013-02-13 03:42:00,39.8,28.2,30.32,NNW,333,11.0,0.0,63,0.00,,,0.00,0,WeatherHawk,2013-02-13 09:42:00,
2013-02-13 03:47:00,39.9,28.3,30.33,NW,322,13.0,0.0,63,0.00,,,0.00,0,WeatherHawk,2013-02-13 09:47:00,
2013-02-13 03:52:00,39.8,28.2,30.34,NW,323,14.0,0.0,63,0.00,,,0.00,1,WeatherHawk,2013-02-13 09:52:00,
2013-02-13 03:57:00,39.8,28.2,30.33,NW,322,14.0,0.0,63,0.00,,,0.00,0,WeatherHawk,2013-02-13 09:57:00,
2013-02-13 04:02:00,39.8,28.6,30.34,NW,321,5.0,0.0,64,0.00,,,0.00,0,WeatherHawk,2013-02-13 10:02:00,
2013-02-13 04:07:00,39.8,29.0,30.34,NW,326,8.0,0.0,65,0.00,,,0.00,1,WeatherHawk,2013-02-13 10:07:00,
2013-02-13 04:12:00,39.8,29.0,30.33,NW,315,12.0,0.0,65,0.00,,,0.00,0,WeatherHawk,2013-02-13 10:12:00,
2013-02-13 04:17:00,39.8,29.0,30.35,SW,234,4.0,0.0,65,0.00,,,0.00,0,WeatherHawk,2013-02-13 10:17:00,
2013-02-13 04:22:00,39.8,29.0,30.34,West,262,8.0,0.0,65,0.00,,,0.00,1,WeatherHawk,2013-02-13 10:22:00,
2013-02-13 04:28:00,39.8,28.6,30.32,NW,306,10.0,0.0,64,0.00,,,0.00,1,WeatherHawk,2013-02-13 10:28:00,
2013-02-13 04:33:00,39.9,28.7,30.33,NW,325,6.0,0.0,64,0.00,,,0.00,1,WeatherHawk,2013-02-13 10:33:00,
2013-02-13 04:38:00,39.9,28.7,30.33,West,279,6.0,0.0,64,0.00,,,0.00,0,WeatherHawk,2013-02-13 10:38:00,
2013-02-13 04:43:00,39.8,28.3,30.34,WSW,246,10.0,0.0,63,0.00,,,0.00,1,WeatherHawk,2013-02-13 10:43:00,
2013-02-13 04:48:00,39.9,28.4,30.33,NW,326,13.0,0.0,63,0.00,,,0.00,0,WeatherHawk,2013-02-13 10:48:00,
2013-02-13 04:53:00,39.9,28.8,30.34,NNW,339,7.0,0.0,64,0.00,,,0.00,1,WeatherHawk,2013-02-13 10:53:00,
2013-02-13 04:58:00,39.9,29.1,30.34,NW,313,7.0,0.0,65,0.00,,,0.00,1,WeatherHawk,2013-02-13 10:58:00,
2013-02-13 05:03:00,39.8,28.7,30.35,West,260,8.0,0.0,64,0.00,,,0.00,0,WeatherHawk,2013-02-13 11:03:00,
2013-02-13 05:08:00,39.8,28.6,30.34,NW,321,11.0,0.0,64,0.00,,,0.00,0,WeatherHawk,2013-02-13 11:08:00,
2013-02-13 05:13:00,39.9,29.1,30.35,NNW,330,8.0,0.0,65,0.00,,,0.00,0,WeatherHawk,2013-02-13 11:13:00,
2013-02-13 05:18:00,39.8,29.0,30.34,NNW,328,10.0,0.0,65,0.00,,,0.00,0,WeatherHawk,2013-02-13 11:18:00,
2013-02-13 05:24:00,39.9,29.5,30.35,NW,323,13.0,0.0,66,0.00,,,0.00,0,WeatherHawk,2013-02-13 11:24:00,
2013-02-13 05:29:00,39.8,29.4,30.35,WNW,288,6.0,0.0,66,0.00,,,0.00,1,WeatherHawk,2013-02-13 11:29:00,
2013-02-13 05:34:00,39.8,29.4,30.35,West,272,8.0,0.0,66,0.00,,,0.00,0,WeatherHawk,2013-02-13 11:34:00,
2013-02-13 05:39:00,39.9,29.9,30.35,NW,318,5.0,0.0,67,0.00,,,0.00,0,WeatherHawk,2013-02-13 11:39:00,
2013-02-13 05:45:00,39.8,30.1,30.34,NW,313,7.0,0.0,68,0.00,,,0.00,0,WeatherHawk,2013-02-13 11:45:00,
2013-02-13 05:50:00,39.6,29.2,30.36,WNW,291,10.0,0.0,66,0.00,,,0.00,1,WeatherHawk,2013-02-13 11:50:00,
2013-02-13 05:55:00,39.6,29.6,30.36,NW,317,6.0,0.0,67,0.00,,,0.00,1,WeatherHawk,2013-02-13 11:55:00,
2013-02-13 06:00:00,39.6,29.9,30.35,NNW,338,6.0,0.0,68,0.00,,,0.00,1,WeatherHawk,2013-02-13 12:00:00,
2013-02-13 06:05:00,39.8,29.3,30.36,North,7,5.0,0.0,66,0.00,,,0.00,1,WeatherHawk,2013-02-13 12:05:00,
2013-02-13 06:09:00,39.6,29.2,30.37,NNW,345,8.0,0.0,66,0.00,,,0.00,1,WeatherHawk,2013-02-13 12:09:00,
2013-02-13 06:15:00,39.5,28.7,30.36,NW,309,7.0,0.0,65,0.00,,,0.00,0,WeatherHawk,2013-02-13 12:15:00,
2013-02-13 06:20:00,39.6,29.6,30.36,NE,48,1.0,-999.0,67,0.00,,,0.00,0,WeatherHawk,2013-02-13 12:20:00,
2013-02-13 06:25:00,39.4,29.3,30.36,NE,34,7.0,0.0,67,0.00,,,0.00,0,WeatherHawk,2013-02-13 12:25:00,
2013-02-13 06:30:00,39.2,29.2,30.36,NW,307,9.0,-999.0,67,0.00,,,0.00,0,WeatherHawk,2013-02-13 12:30:00,
2013-02-13 06:34:00,39.2,29.2,30.36,North,0,10.0,0.0,67,0.00,,,0.00,2,WeatherHawk,2013-02-13 12:34:00,
2013-02-13 06:40:00,39.2,29.2,30.36,NNE,14,6.0,0.0,67,0.00,,,0.00,1,WeatherHawk,2013-02-13 12:40:00,
2013-02-13 06:45:00,39.4,29.7,30.36,NW,318,6.0,0.0,68,0.00,,,0.00,1,WeatherHawk,2013-02-13 12:45:00,
2013-02-13 06:49:00,39.2,28.8,30.35,NNW,334,11.0,0.0,66,0.00,,,0.00,0,WeatherHawk,2013-02-13 12:49:00,
2013-02-13 06:55:00,39.4,29.0,30.36,West,274,4.0,0.0,66,0.00,,,0.00,0,WeatherHawk,2013-02-13 12:55:00,
2013-02-13 06:59:00,39.2,28.8,30.36,WNW,284,6.0,-999.0,66,0.00,,,0.00,1,WeatherHawk,2013-02-13 12:59:00,
2013-02-13 07:04:00,39.3,28.5,30.36,WNW,290,6.0,0.0,65,0.00,,,0.00,1,WeatherHawk,2013-02-13 13:04:00,
2013-02-13 07:09:00,39.4,27.9,30.37,NNW,337,6.0,0.0,63,0.00,,,0.00,3,WeatherHawk,2013-02-13 13:09:00,
2013-02-13 07:14:00,39.4,27.5,30.36,NE,54,7.0,0.0,62,0.00,,,0.00,3,WeatherHawk,2013-02-13 13:14:00,
2013-02-13 07:19:00,39.4,27.1,30.37,North,349,12.0,-999.0,61,0.00,,,0.00,4,WeatherHawk,2013-02-13 13:19:00,
2013-02-13 07:24:00,39.9,27.9,30.38,WNW,303,8.0,0.0,62,0.00,,,0.00,6,WeatherHawk,2013-02-13 13:24:00,
2013-02-13 07:29:00,39.6,28.5,30.38,NE,40,3.0,0.0,64,0.00,,,0.00,7,WeatherHawk,2013-02-13 13:29:00,
2013-02-13 07:34:00,39.6,29.2,30.37,East,84,4.0,0.0,66,0.00,,,0.00,9,WeatherHawk,2013-02-13 13:34:00,
2013-02-13 07:39:00,39.5,29.1,30.38,NW,317,4.0,-999.0,66,0.00,,,0.00,11,WeatherHawk,2013-02-13 13:39:00,
2013-02-13 07:44:00,39.6,29.2,30.38,NNE,13,2.0,0.0,66,0.00,,,0.00,13,WeatherHawk,2013-02-13 13:44:00,
2013-02-13 07:50:00,39.5,29.1,30.39,NNW,330,5.0,0.0,66,0.00,,,0.00,17,WeatherHawk,2013-02-13 13:50:00,
2013-02-13 07:54:00,39.9,29.1,30.38,NNE,14,1.0,0.0,65,0.00,,,0.00,21,WeatherHawk,2013-02-13 13:54:00,
2013-02-13 07:59:00,39.6,28.5,30.38,NNW,344,4.0,0.0,64,0.00,,,0.00,25,WeatherHawk,2013-02-13 13:59:00,
2013-02-13 08:04:00,39.8,28.2,30.39,NE,47,3.0,0.0,63,0.00,,,0.00,25,WeatherHawk,2013-02-13 14:04:00,
2013-02-13 08:09:00,39.8,27.8,30.39,SW,231,4.0,-999.0,62,0.00,,,0.00,32,WeatherHawk,2013-02-13 14:09:00,
2013-02-13 08:14:00,39.9,28.4,30.39,NNE,15,1.0,0.0,63,0.00,,,0.00,39,WeatherHawk,2013-02-13 14:14:00,
2013-02-13 08:19:00,39.9,28.0,30.40,North,0,5.0,-999.0,62,0.00,,,0.00,53,WeatherHawk,2013-02-13 14:19:00,
2013-02-13 08:25:00,39.9,27.6,30.39,South,186,4.0,0.0,61,0.00,,,0.00,55,WeatherHawk,2013-02-13 14:25:00,
2013-02-13 08:29:00,39.7,26.6,30.40,NW,304,8.0,0.0,59,0.00,,,0.00,66,WeatherHawk,2013-02-13 14:29:00,
2013-02-13 08:34:00,40.0,27.2,30.39,NNW,341,5.0,0.0,60,0.00,,,0.00,69,WeatherHawk,2013-02-13 14:34:00,
2013-02-13 08:39:00,40.2,27.4,30.40,WNW,301,5.0,-999.0,60,0.00,,,0.00,66,WeatherHawk,2013-02-13 14:39:00,
2013-02-13 08:45:00,39.8,27.0,30.39,North,9,7.0,0.0,60,0.00,,,0.00,69,WeatherHawk,2013-02-13 14:45:00,
2013-02-13 08:50:00,40.4,28.0,30.40,North,351,3.0,0.0,61,0.00,,,0.00,71,WeatherHawk,2013-02-13 14:50:00,
2013-02-13 08:54:00,39.9,26.7,30.41,NNW,340,7.0,-999.0,59,0.00,,,0.00,79,WeatherHawk,2013-02-13 14:54:00,
2013-02-13 09:00:00,40.2,27.5,30.41,NW,309,4.0,0.0,60,0.00,,,0.00,85,WeatherHawk,2013-02-13 15:00:00,
2013-02-13 09:04:00,39.8,27.1,30.41,NW,317,7.0,0.0,60,0.00,,,0.00,90,WeatherHawk,2013-02-13 15:04:00,
2013-02-13 09:09:00,39.8,26.6,30.41,NW,315,9.0,0.0,59,0.00,,,0.00,120,WeatherHawk,2013-02-13 15:09:00,
2013-02-13 09:14:00,40.5,27.3,30.41,NW,304,6.0,-999.0,59,0.00,,,0.00,131,WeatherHawk,2013-02-13 15:14:00,
2013-02-13 09:19:00,40.1,25.7,30.40,WNW,290,5.0,0.0,56,0.00,,,0.00,141,WeatherHawk,2013-02-13 15:19:00,
2013-02-13 09:24:00,40.3,25.9,30.40,WNW,287,5.0,0.0,56,0.00,,,0.00,139,WeatherHawk,2013-02-13 15:24:00,
2013-02-13 09:29:00,40.4,25.5,30.41,NNW,347,4.0,0.0,55,0.00,,,0.00,164,WeatherHawk,2013-02-13 15:29:00,
2013-02-13 09:34:00,41.1,26.2,30.41,WSW,240,3.0,0.0,55,0.00,,,0.00,162,WeatherHawk,2013-02-13 15:34:00,
2013-02-13 09:39:00,41.4,25.5,30.41,NW,308,0.0,0.0,53,0.00,,,0.00,168,WeatherHawk,2013-02-13 15:39:00,
2013-02-13 09:44:00,41.5,25.2,30.41,North,0,0.0,0.0,52,0.00,,,0.00,190,WeatherHawk,2013-02-13 15:44:00,
2013-02-13 09:49:00,40.9,24.2,30.41,NNW,341,4.0,-999.0,51,0.00,,,0.00,205,WeatherHawk,2013-02-13 15:49:00,
2013-02-13 09:54:00,41.9,24.6,30.41,SW,233,1.0,0.0,50,0.00,,,0.00,244,WeatherHawk,2013-02-13 15:54:00,
2013-02-13 09:59:00,41.7,22.9,30.41,West,281,3.0,0.0,47,0.00,,,0.00,259,WeatherHawk,2013-02-13 15:59:00,
2013-02-13 10:04:00,42.8,23.5,30.41,WSW,241,0.0,0.0,46,0.00,,,0.00,269,WeatherHawk,2013-02-13 16:04:00,
2013-02-13 10:09:00,41.5,21.2,30.40,NW,307,7.0,0.0,44,0.00,,,0.00,247,WeatherHawk,2013-02-13 16:09:00,
2013-02-13 10:14:00,41.6,22.4,30.40,WNW,284,3.0,-999.0,46,0.00,,,0.00,357,WeatherHawk,2013-02-13 16:14:00,
2013-02-13 10:19:00,43.4,22.9,30.40,NNW,329,5.0,0.0,44,0.00,,,0.00,614,WeatherHawk,2013-02-13 16:19:00,
2013-02-13 10:24:00,43.5,22.0,30.40,NNW,344,2.0,-999.0,42,0.00,,,0.00,529,WeatherHawk,2013-02-13 16:24:00,
2013-02-13 10:29:00,44.9,23.2,30.40,NNE,18,2.0,0.0,42,0.00,,,0.00,511,WeatherHawk,2013-02-13 16:29:00,
2013-02-13 10:34:00,43.3,19.4,30.40,WNW,285,8.0,0.0,38,0.00,,,0.00,695,WeatherHawk,2013-02-13 16:34:00,
2013-02-13 10:39:00,44.2,21.4,30.39,North,7,6.0,0.0,40,0.00,,,0.00,779,WeatherHawk,2013-02-13 16:39:00,
2013-02-13 10:44:00,45.0,19.7,30.40,North,351,2.0,0.0,36,0.00,,,0.00,778,WeatherHawk,2013-02-13 16:44:00,
2013-02-13 10:49:00,44.4,21.0,30.40,West,262,2.0,0.0,39,0.00,,,0.00,230,WeatherHawk,2013-02-13 16:49:00,
2013-02-13 10:54:00,47.1,22.2,30.39,NNW,327,0.0,0.0,37,0.00,,,0.00,554,WeatherHawk,2013-02-13 16:54:00,
2013-02-13 10:59:00,46.9,20.7,30.39,NW,325,0.0,0.0,35,0.00,,,0.00,579,WeatherHawk,2013-02-13 16:59:00,
2013-02-13 11:04:00,43.5,16.4,30.39,NW,320,3.0,0.0,33,0.00,,,0.00,672,WeatherHawk,2013-02-13 17:04:00,
2013-02-13 11:09:00,43.8,17.2,30.38,NW,320,3.0,0.0,34,0.00,,,0.00,606,WeatherHawk,2013-02-13 17:09:00,
2013-02-13 11:14:00,50.9,22.1,30.38,WNW,294,0.0,0.0,32,0.00,,,0.00,725,WeatherHawk,2013-02-13 17:14:00,
2013-02-13 11:20:00,45.7,16.0,30.37,North,0,4.0,0.0,30,0.00,,,0.00,739,WeatherHawk,2013-02-13 17:20:00,
2013-02-13 11:24:00,45.0,12.2,30.37,NNW,338,3.0,0.0,26,0.00,,,0.00,689,WeatherHawk,2013-02-13 17:24:00,
2013-02-13 11:29:00,50.5,16.9,30.37,WSW,240,1.0,0.0,26,0.00,,,0.00,669,WeatherHawk,2013-02-13 17:29:00,
2013-02-13 11:34:00,47.2,7.1,30.37,NW,325,0.0,0.0,19,0.00,,,0.00,678,WeatherHawk,2013-02-13 17:34:00,
2013-02-13 11:39:00,52.7,18.8,30.36,South,187,0.0,0.0,26,0.00,,,0.00,679,WeatherHawk,2013-02-13 17:39:00,
2013-02-13 11:44:00,52.4,10.1,30.36,SSW,208,0.0,0.0,18,0.00,,,0.00,678,WeatherHawk,2013-02-13 17:44:00,
2013-02-13 11:49:00,47.7,12.7,30.36,WSW,246,0.0,0.0,24,0.00,,,0.00,669,WeatherHawk,2013-02-13 17:49:00,
2013-02-13 11:54:00,47.6,10.7,30.35,SW,218,4.0,0.0,22,0.00,,,0.00,682,WeatherHawk,2013-02-13 17:54:00,
2013-02-13 11:59:00,46.4,6.4,30.34,NE,40,0.0,0.0,19,0.00,,,0.00,687,WeatherHawk,2013-02-13 17:59:00,
2013-02-13 12:04:00,46.9,8.0,30.34,WNW,285,1.0,0.0,20,0.00,,,0.00,689,WeatherHawk,2013-02-13 18:04:00,
2013-02-13 12:09:00,50.1,10.6,30.33,NNW,339,0.0,0.0,20,0.00,,,0.00,694,WeatherHawk,2013-02-13 18:09:00,
2013-02-13 12:14:00,45.9,7.1,30.33,NNW,338,4.0,0.0,20,0.00,,,0.00,697,WeatherHawk,2013-02-13 18:14:00,
2013-02-13 12:19:00,53.2,15.3,30.33,WSW,248,0.0,0.0,22,0.00,,,0.00,699,WeatherHawk,2013-02-13 18:19:00,
2013-02-13 12:24:00,46.2,6.2,30.33,NW,320,5.0,0.0,19,0.00,,,0.00,702,WeatherHawk,2013-02-13 18:24:00,
2013-02-13 12:29:00,48.2,9.0,30.32,WNW,297,2.0,0.0,20,0.00,,,0.00,705,WeatherHawk,2013-02-13 18:29:00,
2013-02-13 12:34:00,47.9,11.9,30.32,North,0,0.0,-999.0,23,0.00,,,0.00,706,WeatherHawk,2013-02-13 18:34:00,
2013-02-13 12:39:00,47.6,10.6,30.32,NNE,24,3.0,0.0,22,0.00,,,0.00,707,WeatherHawk,2013-02-13 18:39:00,
2013-02-13 12:44:00,49.2,12.0,30.32,NNE,12,0.0,0.0,22,0.00,,,0.00,711,WeatherHawk,2013-02-13 18:44:00,
2013-02-13 12:49:00,49.3,6.3,30.31,NNE,18,1.0,0.0,17,0.00,,,0.00,706,WeatherHawk,2013-02-13 18:49:00,
2013-02-13 12:54:00,50.1,9.5,30.31,NW,320,5.0,-999.0,19,0.00,,,0.00,707,WeatherHawk,2013-02-13 18:54:00,
2013-02-13 12:59:00,50.7,8.7,30.31,NNW,327,0.0,0.0,18,0.00,,,0.00,705,WeatherHawk,2013-02-13 18:59:00,
2013-02-13 13:04:00,52.5,9.0,30.30,North,351,0.0,0.0,17,0.00,,,0.00,706,WeatherHawk,2013-02-13 19:04:00,
2013-02-13 13:09:00,57.6,10.3,30.30,NW,323,0.0,0.0,15,0.00,,,0.00,704,WeatherHawk,2013-02-13 19:09:00,
2013-02-13 13:14:00,50.2,4.4,30.28,NE,50,3.0,-999.0,15,0.00,,,0.00,699,WeatherHawk,2013-02-13 19:14:00,
2013-02-13 13:19:00,50.9,1.8,30.28,North,0,2.0,0.0,13,0.00,,,0.00,695,WeatherHawk,2013-02-13 19:19:00,
2013-02-13 13:24:00,51.5,8.2,30.28,NW,308,4.0,-999.0,17,0.00,,,0.00,691,WeatherHawk,2013-02-13 19:24:00,
2013-02-13 13:29:00,52.3,6.0,30.28,NNW,336,2.0,0.0,15,0.00,,,0.00,692,WeatherHawk,2013-02-13 19:29:00,
2013-02-13 13:34:00,51.8,7.1,30.28,North,3,4.0,-999.0,16,0.00,,,0.00,690,WeatherHawk,2013-02-13 19:34:00,
2013-02-13 13:39:00,52.6,6.3,30.28,WSW,244,4.0,0.0,15,0.00,,,0.00,685,WeatherHawk,2013-02-13 19:39:00,
2013-02-13 13:44:00,52.8,4.9,30.27,WNW,294,5.0,-999.0,14,0.00,,,0.00,677,WeatherHawk,2013-02-13 19:44:00,
2013-02-13 13:49:00,50.6,1.6,30.27,West,260,0.0,0.0,13,0.00,,,0.00,671,WeatherHawk,2013-02-13 19:49:00,
2013-02-13 13:54:00,54.4,2.9,30.27,SSW,194,0.0,0.0,12,0.00,,,0.00,665,WeatherHawk,2013-02-13 19:54:00,
2013-02-13 13:59:00,54.7,4.9,30.26,West,273,0.0,0.0,13,0.00,,,0.00,658,WeatherHawk,2013-02-13 19:59:00,
2013-02-13 14:04:00,53.6,2.3,30.26,North,8,0.0,0.0,12,0.00,,,0.00,654,WeatherHawk,2013-02-13 20:04:00,
2013-02-13 14:09:00,55.8,-2.2,30.25,East,91,0.0,0.0,9,0.00,,,0.00,652,WeatherHawk,2013-02-13 20:09:00,
2013-02-13 14:14:00,54.8,-0.7,30.26,SSE,158,0.0,0.0,10,0.00,,,0.00,641,WeatherHawk,2013-02-13 20:14:00,
2013-02-13 14:19:00,55.9,5.8,30.25,South,179,0.0,-999.0,13,0.00,,,0.00,632,WeatherHawk,2013-02-13 20:19:00,
2013-02-13 14:24:00,52.4,-0.5,30.27,SSW,210,3.0,0.0,11,0.00,,,0.00,626,WeatherHawk,2013-02-13 20:24:00,
2013-02-13 14:29:00,54.8,1.3,30.25,South,184,2.0,0.0,11,0.00,,,0.00,618,WeatherHawk,2013-02-13 20:29:00,
2013-02-13 14:34:00,56.5,4.5,30.24,SSW,210,0.0,0.0,12,0.00,,,0.00,611,WeatherHawk,2013-02-13 20:34:00,
2013-02-13 14:39:00,55.3,-0.3,30.24,South,186,3.0,0.0,10,0.00,,,0.00,604,WeatherHawk,2013-02-13 20:39:00,
2013-02-13 14:44:00,52.8,1.6,30.24,South,187,4.0,0.0,12,0.00,,,0.00,594,WeatherHawk,2013-02-13 20:44:00,
2013-02-13 14:49:00,55.4,-0.2,30.24,SSE,161,2.0,0.0,10,0.00,,,0.00,579,WeatherHawk,2013-02-13 20:49:00,
2013-02-13 14:54:00,55.4,1.8,30.24,East,95,3.0,0.0,11,0.00,,,0.00,572,WeatherHawk,2013-02-13 20:54:00,
2013-02-13 14:59:00,55.3,1.7,30.24,ESE,121,0.0,-999.0,11,0.00,,,0.00,559,WeatherHawk,2013-02-13 20:59:00,
2013-02-13 15:04:00,58.3,2.0,30.24,ENE,66,0.0,0.0,10,0.00,,,0.00,545,WeatherHawk,2013-02-13 21:04:00,
2013-02-13 15:09:00,52.9,-0.1,30.24,NW,314,2.0,-999.0,11,0.00,,,0.00,528,WeatherHawk,2013-02-13 21:09:00,
2013-02-13 15:14:00,54.0,2.6,30.24,NNW,344,0.0,0.0,12,0.00,,,0.00,512,WeatherHawk,2013-02-13 21:14:00,
2013-02-13 15:19:00,53.7,2.4,30.23,NNW,330,2.0,-999.0,12,0.00,,,0.00,503,WeatherHawk,2013-02-13 21:19:00,
2013-02-13 15:24:00,54.9,-0.6,30.24,North,1,0.0,0.0,10,0.00,,,0.00,492,WeatherHawk,2013-02-13 21:24:00,
2013-02-13 15:29:00,53.7,2.3,30.23,SSE,156,1.0,0.0,12,0.00,,,0.00,481,WeatherHawk,2013-02-13 21:29:00,
2013-02-13 15:34:00,57.2,1.2,30.23,SE,142,0.0,0.0,10,0.00,,,0.00,466,WeatherHawk,2013-02-13 21:34:00,
2013-02-13 15:39:00,54.1,2.6,30.23,SSE,152,3.0,-999.0,12,0.00,,,0.00,456,WeatherHawk,2013-02-13 21:39:00,
2013-02-13 15:44:00,55.1,1.6,30.23,SSW,202,5.0,0.0,11,0.00,,,0.00,441,WeatherHawk,2013-02-13 21:44:00,
2013-02-13 15:49:00,56.1,4.2,30.24,South,184,0.0,0.0,12,0.00,,,0.00,426,WeatherHawk,2013-02-13 21:49:00,
2013-02-13 15:54:00,56.5,4.5,30.23,NE,51,0.0,-999.0,12,0.00,,,0.00,412,WeatherHawk,2013-02-13 21:54:00,
2013-02-13 15:59:00,56.6,2.7,30.23,SE,137,0.0,0.0,11,0.00,,,0.00,399,WeatherHawk,2013-02-13 21:59:00,
2013-02-13 16:04:00,54.2,2.7,30.23,East,101,3.0,0.0,12,0.00,,,0.00,388,WeatherHawk,2013-02-13 22:04:00,
2013-02-13 16:09:00,56.4,6.2,30.23,NE,41,0.0,0.0,13,0.00,,,0.00,368,WeatherHawk,2013-02-13 22:09:00,
2013-02-13 16:14:00,59.1,6.6,30.23,SE,132,0.0,-999.0,12,0.00,,,0.00,354,WeatherHawk,2013-02-13 22:14:00,
2013-02-13 16:19:00,58.3,4.1,30.23,SW,215,0.0,0.0,11,0.00,,,0.00,340,WeatherHawk,2013-02-13 22:19:00,
2013-02-13 16:24:00,56.1,5.9,30.23,NNW,348,0.0,0.0,13,0.00,,,0.00,327,WeatherHawk,2013-02-13 22:24:00,
2013-02-13 16:29:00,57.5,5.3,30.24,ESE,104,0.0,0.0,12,0.00,,,0.00,310,WeatherHawk,2013-02-13 22:29:00,
2013-02-13 16:34:00,56.4,4.5,30.23,ESE,110,0.0,0.0,12,0.00,,,0.00,294,WeatherHawk,2013-02-13 22:34:00,
2013-02-13 16:39:00,56.4,4.4,30.23,East,79,0.0,0.0,12,0.00,,,0.00,277,WeatherHawk,2013-02-13 22:39:00,
2013-02-13 16:44:00,55.3,5.3,30.23,NNW,339,0.0,0.0,13,0.00,,,0.00,261,WeatherHawk,2013-02-13 22:44:00,
2013-02-13 16:49:00,57.3,8.5,30.24,SSE,152,0.0,0.0,14,0.00,,,0.00,245,WeatherHawk,2013-02-13 22:49:00,
2013-02-13 16:54:00,57.0,3.0,30.24,SSW,204,4.0,0.0,11,0.00,,,0.00,233,WeatherHawk,2013-02-13 22:54:00,
2013-02-13 16:59:00,56.6,6.3,30.24,SE,144,4.0,0.0,13,0.00,,,0.00,211,WeatherHawk,2013-02-13 22:59:00,
2013-02-13 17:04:00,57.1,8.4,30.23,WSW,240,0.0,-999.0,14,0.00,,,0.00,198,WeatherHawk,2013-02-13 23:04:00,
2013-02-13 17:09:00,57.5,7.1,30.24,South,173,0.0,0.0,13,0.00,,,0.00,181,WeatherHawk,2013-02-13 23:09:00,
2013-02-13 17:14:00,57.0,8.3,30.24,WSW,237,0.0,0.0,14,0.00,,,0.00,165,WeatherHawk,2013-02-13 23:14:00,
2013-02-13 17:19:00,56.1,4.3,30.24,South,179,4.0,0.0,12,0.00,,,0.00,148,WeatherHawk,2013-02-13 23:19:00,
2013-02-13 17:24:00,56.9,8.2,30.23,South,183,3.0,0.0,14,0.00,,,0.00,132,WeatherHawk,2013-02-13 23:24:00,
2013-02-13 17:29:00,56.8,4.8,30.23,SSW,193,0.0,0.0,12,0.00,,,0.00,116,WeatherHawk,2013-02-13 23:29:00,
2013-02-13 17:34:00,56.1,7.6,30.24,SSW,193,0.0,-999.0,14,0.00,,,0.00,98,WeatherHawk,2013-02-13 23:34:00,
2013-02-13 17:39:00,56.1,7.5,30.24,SSE,161,3.0,0.0,14,0.00,,,0.00,84,WeatherHawk,2013-02-13 23:39:00,
2013-02-13 17:44:00,55.8,5.7,30.24,SSE,164,0.0,0.0,13,0.00,,,0.00,68,WeatherHawk,2013-02-13 23:44:00,
2013-02-13 17:49:00,55.8,7.4,30.24,South,172,2.0,0.0,14,0.00,,,0.00,54,WeatherHawk,2013-02-13 23:49:00,
2013-02-13 17:54:00,55.9,8.9,30.24,SSE,155,0.0,0.0,15,0.00,,,0.00,43,WeatherHawk,2013-02-13 23:54:00,
2013-02-13 17:59:00,55.6,8.7,30.24,SSE,153,3.0,0.0,15,0.00,,,0.00,28,WeatherHawk,2013-02-13 23:59:00,
2013-02-13 18:04:00,55.6,8.7,30.25,SE,144,3.0,0.0,15,0.00,,,0.00,18,WeatherHawk,2013-02-14 00:04:00,
2013-02-13 18:09:00,55.4,10.0,30.25,SSE,166,1.0,0.0,16,0.00,,,0.00,7,WeatherHawk,2013-02-14 00:09:00,
2013-02-13 18:14:00,55.5,11.4,30.24,SSW,197,3.0,-999.0,17,0.00,,,0.00,4,WeatherHawk,2013-02-14 00:14:00,
2013-02-13 18:19:00,54.8,9.5,30.25,SSE,147,3.0,0.0,16,0.00,,,0.00,3,WeatherHawk,2013-02-14 00:19:00,
2013-02-13 18:24:00,55.3,11.2,30.25,SE,139,1.0,-999.0,17,0.00,,,0.00,1,WeatherHawk,2013-02-14 00:24:00,
2013-02-13 18:29:00,54.6,11.9,30.25,SSE,150,3.0,0.0,18,0.00,,,0.00,0,WeatherHawk,2013-02-14 00:29:00,
2013-02-13 18:34:00,54.4,13.0,30.25,SE,139,3.0,0.0,19,0.00,,,0.00,1,WeatherHawk,2013-02-14 00:34:00,
2013-02-13 18:39:00,53.7,13.6,30.25,SSE,168,4.0,0.0,20,0.00,,,0.00,0,WeatherHawk,2013-02-14 00:39:00,
2013-02-13 18:44:00,54.3,14.1,30.25,SE,145,3.0,0.0,20,0.00,,,0.00,0,WeatherHawk,2013-02-14 00:44:00,
2013-02-13 18:49:00,54.2,14.0,30.26,SE,130,4.0,0.0,20,0.00,,,0.00,0,WeatherHawk,2013-02-14 00:49:00,
2013-02-13 18:54:00,54.8,15.6,30.25,SE,136,0.0,0.0,21,0.00,,,0.00,1,WeatherHawk,2013-02-14 00:54:00,
2013-02-13 18:59:00,53.0,14.1,30.25,SSE,159,4.0,-999.0,21,0.00,,,0.00,0,WeatherHawk,2013-02-14 00:59:00,
2013-02-13 19:04:00,53.1,16.3,30.26,SE,143,6.0,0.0,23,0.00,,,0.00,1,WeatherHawk,2013-02-14 01:04:00,
2013-02-13 19:09:00,52.2,18.4,30.26,SE,144,3.0,0.0,26,0.00,,,0.00,1,WeatherHawk,2013-02-14 01:09:00,
2013-02-13 19:14:00,52.1,18.3,30.26,SSE,151,4.0,0.0,26,0.00,,,0.00,0,WeatherHawk,2013-02-14 01:14:00,
2013-02-13 19:19:00,52.0,20.0,30.26,SSE,148,7.0,0.0,28,0.00,,,0.00,0,WeatherHawk,2013-02-14 01:19:00,
2013-02-13 19:24:00,51.9,20.7,30.26,SE,142,3.0,0.0,29,0.00,,,0.00,0,WeatherHawk,2013-02-14 01:24:00,
2013-02-13 19:29:00,51.7,21.3,30.27,SE,145,6.0,0.0,30,0.00,,,0.00,0,WeatherHawk,2013-02-14 01:29:00,
2013-02-13 19:34:00,52.3,23.3,30.27,SE,145,4.0,0.0,32,0.00,,,0.00,0,WeatherHawk,2013-02-14 01:34:00,
2013-02-13 19:39:00,51.3,22.4,30.26,SSE,157,5.0,0.0,32,0.00,,,0.00,1,WeatherHawk,2013-02-14 01:39:00,
2013-02-13 19:44:00,50.8,22.8,30.26,South,171,5.0,0.0,33,0.00,,,0.00,0,WeatherHawk,2013-02-14 01:44:00,
2013-02-13 19:49:00,50.6,22.5,30.26,SE,125,4.0,0.0,33,0.00,,,0.00,0,WeatherHawk,2013-02-14 01:49:00,
2013-02-13 19:54:00,50.8,23.4,30.27,SSE,154,5.0,0.0,34,0.00,,,0.00,0,WeatherHawk,2013-02-14 01:54:00,
2013-02-13 19:59:00,50.5,23.2,30.27,SSE,162,7.0,0.0,34,0.00,,,0.00,0,WeatherHawk,2013-02-14 01:59:00,
2013-02-13 20:04:00,51.1,23.7,30.27,ESE,121,6.0,0.0,34,0.00,,,0.00,0,WeatherHawk,2013-02-14 02:04:00,
2013-02-13 20:09:00,50.2,23.6,30.27,South,171,5.0,-999.0,35,0.00,,,0.00,1,WeatherHawk,2013-02-14 02:09:00,
2013-02-13 20:14:00,50.9,24.2,30.27,SE,137,5.0,0.0,35,0.00,,,0.00,1,WeatherHawk,2013-02-14 02:14:00,
2013-02-13 20:19:00,50.9,24.9,30.28,SE,146,6.0,0.0,36,0.00,,,0.00,1,WeatherHawk,2013-02-14 02:19:00,
2013-02-13 20:24:00,50.4,24.5,30.28,SSE,156,4.0,0.0,36,0.00,,,0.00,1,WeatherHawk,2013-02-14 02:24:00,
2013-02-13 20:29:00,51.2,25.8,30.28,ESE,123,3.0,0.0,37,0.00,,,0.00,1,WeatherHawk,2013-02-14 02:29:00,
2013-02-13 20:34:00,49.4,24.2,30.28,SE,139,5.0,0.0,37,0.00,,,0.00,0,WeatherHawk,2013-02-14 02:34:00,
2013-02-13 20:39:00,49.1,24.0,30.27,SE,137,4.0,0.0,37,0.00,,,0.00,1,WeatherHawk,2013-02-14 02:39:00,
2013-02-13 20:44:00,49.2,24.0,30.28,SE,143,5.0,0.0,37,0.00,,,0.00,0,WeatherHawk,2013-02-14 02:44:00,
2013-02-13 20:49:00,50.4,25.8,30.28,SE,141,3.0,0.0,38,0.00,,,0.00,0,WeatherHawk,2013-02-14 02:49:00,
2013-02-13 20:54:00,50.3,26.3,30.28,ESE,120,3.0,0.0,39,0.00,,,0.00,0,WeatherHawk,2013-02-14 02:54:00,
2013-02-13 20:59:00,49.6,25.7,30.27,SE,146,4.0,0.0,39,0.00,,,0.00,1,WeatherHawk,2013-02-14 02:59:00,
2013-02-13 21:04:00,48.7,24.8,30.28,SSE,162,3.0,0.0,39,0.00,,,0.00,1,WeatherHawk,2013-02-14 03:04:00,
2013-02-13 21:09:00,48.5,25.3,30.29,SE,144,4.0,0.0,40,0.00,,,0.00,0,WeatherHawk,2013-02-14 03:09:00,
2013-02-13 21:14:00,49.5,26.2,30.28,ESE,114,4.0,0.0,40,0.00,,,0.00,0,WeatherHawk,2013-02-14 03:14:00,
2013-02-13 21:19:00,48.9,25.6,30.29,SSE,155,7.0,-999.0,40,0.00,,,0.00,0,WeatherHawk,2013-02-14 03:19:00,
2013-02-13 21:24:00,48.4,25.2,30.29,SSE,155,4.0,0.0,40,0.00,,,0.00,1,WeatherHawk,2013-02-14 03:24:00,
2013-02-13 21:29:00,48.7,26.0,30.28,SSE,149,5.0,-999.0,41,0.00,,,0.00,0,WeatherHawk,2013-02-14 03:29:00,
2013-02-13 21:34:00,48.3,25.1,30.30,SSE,160,6.0,0.0,40,0.00,,,0.00,1,WeatherHawk,2013-02-14 03:34:00,
2013-02-13 21:39:00,48.5,25.9,30.29,SSE,147,5.0,0.0,41,0.00,,,0.00,0,WeatherHawk,2013-02-14 03:39:00,
2013-02-13 21:44:00,47.9,24.8,30.29,SE,146,7.0,0.0,40,0.00,,,0.00,1,WeatherHawk,2013-02-14 03:44:00,
2013-02-13 21:49:00,48.0,26.0,30.29,SE,136,6.0,0.0,42,0.00,,,0.00,1,WeatherHawk,2013-02-14 03:49:00,
2013-02-13 21:54:00,47.2,25.8,30.30,SE,143,4.0,0.0,43,0.00,,,0.00,0,WeatherHawk,2013-02-14 03:54:00,
2013-02-13 21:59:00,47.2,26.4,30.30,SE,144,4.0,0.0,44,0.00,,,0.00,1,WeatherHawk,2013-02-14 03:59:00,
2013-02-13 22:04:00,47.1,26.3,30.30,SE,140,4.0,0.0,44,0.00,,,0.00,1,WeatherHawk,2013-02-14 04:04:00,
2013-02-13 22:09:00,47.1,26.9,30.30,ESE,119,4.0,0.0,45,0.00,,,0.00,1,WeatherHawk,2013-02-14 04:09:00,
2013-02-13 22:14:00,46.7,26.5,30.30,South,178,1.0,0.0,45,0.00,,,0.00,0,WeatherHawk,2013-02-14 04:14:00,
2013-02-13 22:19:00,47.0,27.3,30.31,SE,144,2.0,0.0,46,0.00,,,0.00,0,WeatherHawk,2013-02-14 04:19:00,
2013-02-13 22:24:00,46.8,27.1,30.30,SE,125,4.0,0.0,46,0.00,,,0.00,0,WeatherHawk,2013-02-14 04:24:00,
2013-02-13 22:29:00,46.7,27.6,30.30,ESE,119,0.0,0.0,47,0.00,,,0.00,0,WeatherHawk,2013-02-14 04:29:00,
2013-02-13 22:34:00,45.7,27.6,30.30,East,91,0.0,0.0,49,0.00,,,0.00,1,WeatherHawk,2013-02-14 04:34:00,
2013-02-13 22:39:00,45.4,28.4,30.30,South,181,0.0,0.0,51,0.00,,,0.00,0,WeatherHawk,2013-02-14 04:39:00,
2013-02-13 22:44:00,44.6,28.1,30.31,SE,130,0.0,0.0,52,0.00,,,0.00,0,WeatherHawk,2013-02-14 04:44:00,
2013-02-13 22:49:00,44.2,28.7,30.30,SE,125,0.0,0.0,54,0.00,,,0.00,0,WeatherHawk,2013-02-14 04:49:00,
2013-02-13 22:54:00,44.8,28.7,30.31,ENE,63,0.0,-999.0,53,0.00,,,0.00,1,WeatherHawk,2013-02-14 04:54:00,
2013-02-13 22:59:00,46.2,31.4,30.31,East,79,0.0,0.0,56,0.00,,,0.00,0,WeatherHawk,2013-02-14 04:59:00,
2013-02-13 23:00:00,46.2,31.4,30.31,ESE,112,2.0,0.0,56,0.00,,,0.00,0,WeatherHawk,2013-02-14 05:00:00,
2013-02-13 23:01:00,45.3,29.6,30.31,ESE,116,0.0,0.0,54,0.00,,,0.00,0,WeatherHawk,2013-02-14 05:01:00,
2013-02-13 23:06:00,46.2,30.5,30.32,SE,126,0.0,0.0,54,0.00,,,0.00,0,WeatherHawk,2013-02-14 05:06:00,
2013-02-13 23:12:00,46.2,30.0,30.32,SSE,164,1.0,0.0,53,0.00,,,0.00,0,WeatherHawk,2013-02-14 05:12:00,
2013-02-13 23:17:00,46.0,29.3,30.31,South,177,3.0,0.0,52,0.00,,,0.00,0,WeatherHawk,2013-02-14 05:17:00,
2013-02-13 23:22:00,46.0,28.4,30.31,SSE,158,3.0,0.0,50,0.00,,,0.00,0,WeatherHawk,2013-02-14 05:22:00,
2013-02-13 23:27:00,46.3,29.2,30.31,SE,128,3.0,0.0,51,0.00,,,0.00,1,WeatherHawk,2013-02-14 05:27:00,
2013-02-13 23:33:00,44.8,27.8,30.31,SE,131,0.0,0.0,51,0.00,,,0.00,0,WeatherHawk,2013-02-14 05:33:00,
2013-02-13 23:39:00,45.1,29.0,30.32,ESE,116,0.0,0.0,53,0.00,,,0.00,1,WeatherHawk,2013-02-14 05:39:00,
2013-02-13 23:44:00,45.2,29.1,30.31,SE,124,1.0,0.0,53,0.00,,,0.00,0,WeatherHawk,2013-02-14 05:44:00,
2013-02-13 23:49:00,44.7,28.7,30.32,SE,130,0.0,0.0,53,0.00,,,0.00,1,WeatherHawk,2013-02-14 05:49:00,
2013-02-13 23:54:00,44.8,29.2,30.32,ESE,114,0.0,0.0,54,0.00,,,0.00,1,WeatherHawk,2013-02-14 05:54:00,
2013-02-13 23:59:00,45.0,28.9,30.32,ESE,114,0.0,0.0,53,0.00,,,0.00,0,WeatherHawk,2013-02-14 05:59:00,